sensor_id;sensor_type;location;lat;lon;timestamp;P1;durP1;ratioP1;P2;durP2;ratioP2
16436;SDS011;8328;52.206;21.006;2022-08-27T00:00:15;14.03;;;8.80;;
16436;SDS011;8328;52.206;21.006;2022-08-27T00:02:42;11.37;;;8.30;;
16436;SDS011;8328;52.206;21.006;2022-08-27T00:05:10;11.03;;;9.10;;
16436;SDS011;8328;52.206;21.006;2022-08-27T00:07:37;11.83;;;8.33;;
16436;SDS011;8328;52.206;21.006;2022-08-27T00:10:04;10.07;;;8.37;;
16436;SDS011;8328;52.206;21.006;2022-08-27T00:12:32;9.77;;;8.53;;
16436;SDS011;8328;52.206;21.006;2022-08-27T00:14:58;9.70;;;8.37;;
16436;SDS011;8328;52.206;21.006;2022-08-27T00:17:25;10.07;;;7.93;;
16436;SDS011;8328;52.206;21.006;2022-08-27T00:19:51;15.27;;;8.93;;
16436;SDS011;8328;52.206;21.006;2022-08-27T00:22:17;10.50;;;8.40;;
16436;SDS011;8328;52.206;21.006;2022-08-27T00:24:43;11.23;;;8.83;;
16436;SDS011;8328;52.206;21.006;2022-08-27T00:27:08;11.23;;;8.80;;
16436;SDS011;8328;52.206;21.006;2022-08-27T00:29:34;12.13;;;8.90;;
16436;SDS011;8328;52.206;21.006;2022-08-27T00:32:00;10.27;;;8.50;;
16436;SDS011;8328;52.206;21.006;2022-08-27T00:34:26;10.23;;;8.67;;
16436;SDS011;8328;52.206;21.006;2022-08-27T00:36:52;12.00;;;9.00;;
16436;SDS011;8328;52.206;21.006;2022-08-27T00:39:18;12.43;;;8.80;;
16436;SDS011;8328;52.206;21.006;2022-08-27T00:41:44;12.80;;;9.30;;
16436;SDS011;8328;52.206;21.006;2022-08-27T00:44:10;12.23;;;8.67;;
16436;SDS011;8328;52.206;21.006;2022-08-27T00:52:22;10.67;;;9.40;;
16436;SDS011;8328;52.206;21.006;2022-08-27T00:54:50;15.10;;;9.50;;
16436;SDS011;8328;52.206;21.006;2022-08-27T00:57:20;14.50;;;9.23;;
16436;SDS011;8328;52.206;21.006;2022-08-27T00:59:47;12.37;;;8.43;;
16436;SDS011;8328;52.206;21.006;2022-08-27T01:02:13;12.83;;;9.23;;
16436;SDS011;8328;52.206;21.006;2022-08-27T01:07:25;10.37;;;8.80;;
16436;SDS011;8328;52.206;21.006;2022-08-27T01:09:53;13.27;;;9.30;;
16436;SDS011;8328;52.206;21.006;2022-08-27T01:12:21;11.40;;;8.73;;
16436;SDS011;8328;52.206;21.006;2022-08-27T01:14:47;12.83;;;9.40;;
16436;SDS011;8328;52.206;21.006;2022-08-27T01:17:13;14.70;;;9.40;;
16436;SDS011;8328;52.206;21.006;2022-08-27T01:19:46;15.00;;;9.70;;
16436;SDS011;8328;52.206;21.006;2022-08-27T01:25:09;12.30;;;9.40;;
16436;SDS011;8328;52.206;21.006;2022-08-27T01:27:38;12.97;;;9.80;;
16436;SDS011;8328;52.206;21.006;2022-08-27T01:30:06;14.93;;;9.27;;
16436;SDS011;8328;52.206;21.006;2022-08-27T01:32:34;11.47;;;8.50;;
16436;SDS011;8328;52.206;21.006;2022-08-27T01:35:02;13.17;;;8.97;;
16436;SDS011;8328;52.206;21.006;2022-08-27T01:37:31;14.73;;;9.50;;
16436;SDS011;8328;52.206;21.006;2022-08-27T01:39:58;12.10;;;9.57;;
16436;SDS011;8328;52.206;21.006;2022-08-27T01:42:34;12.87;;;9.80;;
16436;SDS011;8328;52.206;21.006;2022-08-27T01:47:37;13.37;;;9.53;;
16436;SDS011;8328;52.206;21.006;2022-08-27T01:50:06;15.00;;;10.70;;
16436;SDS011;8328;52.206;21.006;2022-08-27T01:52:34;12.47;;;10.33;;
16436;SDS011;8328;52.206;21.006;2022-08-27T01:55:01;13.07;;;9.93;;
16436;SDS011;8328;52.206;21.006;2022-08-27T01:57:27;11.43;;;9.23;;
16436;SDS011;8328;52.206;21.006;2022-08-27T01:59:53;12.93;;;10.23;;
16436;SDS011;8328;52.206;21.006;2022-08-27T02:02:21;12.80;;;10.20;;
16436;SDS011;8328;52.206;21.006;2022-08-27T02:04:47;12.27;;;9.87;;
16436;SDS011;8328;52.206;21.006;2022-08-27T02:07:14;13.97;;;10.33;;
16436;SDS011;8328;52.206;21.006;2022-08-27T02:09:40;12.97;;;10.03;;
16436;SDS011;8328;52.206;21.006;2022-08-27T02:12:06;15.50;;;9.90;;
16436;SDS011;8328;52.206;21.006;2022-08-27T02:14:32;15.40;;;10.33;;
16436;SDS011;8328;52.206;21.006;2022-08-27T02:16:59;12.53;;;10.00;;
16436;SDS011;8328;52.206;21.006;2022-08-27T02:19:24;12.00;;;9.77;;
16436;SDS011;8328;52.206;21.006;2022-08-27T02:21:51;14.03;;;9.77;;
16436;SDS011;8328;52.206;21.006;2022-08-27T02:24:17;11.60;;;9.93;;
16436;SDS011;8328;52.206;21.006;2022-08-27T02:26:43;14.90;;;9.73;;
16436;SDS011;8328;52.206;21.006;2022-08-27T02:29:09;11.73;;;9.30;;
16436;SDS011;8328;52.206;21.006;2022-08-27T02:31:35;11.60;;;9.77;;
16436;SDS011;8328;52.206;21.006;2022-08-27T02:34:01;14.10;;;10.30;;
16436;SDS011;8328;52.206;21.006;2022-08-27T02:36:27;13.87;;;9.60;;
16436;SDS011;8328;52.206;21.006;2022-08-27T02:38:54;11.83;;;9.57;;
16436;SDS011;8328;52.206;21.006;2022-08-27T02:41:20;18.40;;;10.53;;
16436;SDS011;8328;52.206;21.006;2022-08-27T02:43:47;13.20;;;9.67;;
16436;SDS011;8328;52.206;21.006;2022-08-27T02:46:13;13.43;;;10.73;;
16436;SDS011;8328;52.206;21.006;2022-08-27T02:48:39;15.33;;;10.33;;
16436;SDS011;8328;52.206;21.006;2022-08-27T02:51:06;13.07;;;9.87;;
16436;SDS011;8328;52.206;21.006;2022-08-27T02:53:34;13.20;;;10.33;;
16436;SDS011;8328;52.206;21.006;2022-08-27T02:56:01;11.97;;;10.03;;
16436;SDS011;8328;52.206;21.006;2022-08-27T02:58:28;15.43;;;10.53;;
16436;SDS011;8328;52.206;21.006;2022-08-27T03:00:54;16.23;;;10.57;;
16436;SDS011;8328;52.206;21.006;2022-08-27T03:03:20;14.50;;;10.40;;
16436;SDS011;8328;52.206;21.006;2022-08-27T03:05:46;11.90;;;10.23;;
16436;SDS011;8328;52.206;21.006;2022-08-27T03:08:12;14.50;;;10.90;;
16436;SDS011;8328;52.206;21.006;2022-08-27T03:10:38;14.30;;;10.33;;
16436;SDS011;8328;52.206;21.006;2022-08-27T03:13:04;11.57;;;10.03;;
16436;SDS011;8328;52.206;21.006;2022-08-27T03:15:30;11.93;;;10.30;;
16436;SDS011;8328;52.206;21.006;2022-08-27T03:17:55;13.20;;;10.50;;
16436;SDS011;8328;52.206;21.006;2022-08-27T03:20:40;14.20;;;10.73;;
16436;SDS011;8328;52.206;21.006;2022-08-27T03:23:08;13.53;;;9.83;;
16436;SDS011;8328;52.206;21.006;2022-08-27T03:25:35;14.07;;;10.20;;
16436;SDS011;8328;52.206;21.006;2022-08-27T03:28:02;12.90;;;10.77;;
16436;SDS011;8328;52.206;21.006;2022-08-27T03:30:28;15.93;;;9.87;;
16436;SDS011;8328;52.206;21.006;2022-08-27T03:32:55;14.23;;;11.07;;
16436;SDS011;8328;52.206;21.006;2022-08-27T03:35:21;13.23;;;10.83;;
16436;SDS011;8328;52.206;21.006;2022-08-27T03:37:47;13.13;;;10.67;;
16436;SDS011;8328;52.206;21.006;2022-08-27T03:40:13;12.63;;;9.70;;
16436;SDS011;8328;52.206;21.006;2022-08-27T03:42:40;12.70;;;10.10;;
16436;SDS011;8328;52.206;21.006;2022-08-27T03:45:07;13.73;;;11.10;;
16436;SDS011;8328;52.206;21.006;2022-08-27T03:47:34;12.30;;;10.80;;
16436;SDS011;8328;52.206;21.006;2022-08-27T03:50:00;13.37;;;10.50;;
16436;SDS011;8328;52.206;21.006;2022-08-27T03:52:27;11.53;;;10.30;;
16436;SDS011;8328;52.206;21.006;2022-08-27T03:54:53;14.07;;;10.60;;
16436;SDS011;8328;52.206;21.006;2022-08-27T03:57:19;13.53;;;10.33;;
16436;SDS011;8328;52.206;21.006;2022-08-27T03:59:44;13.13;;;10.67;;
16436;SDS011;8328;52.206;21.006;2022-08-27T04:02:10;13.50;;;10.40;;
16436;SDS011;8328;52.206;21.006;2022-08-27T04:04:36;13.40;;;10.57;;
16436;SDS011;8328;52.206;21.006;2022-08-27T04:07:02;15.20;;;10.47;;
16436;SDS011;8328;52.206;21.006;2022-08-27T04:09:28;14.17;;;10.80;;
16436;SDS011;8328;52.206;21.006;2022-08-27T04:11:53;15.03;;;9.80;;
16436;SDS011;8328;52.206;21.006;2022-08-27T04:14:19;15.50;;;11.10;;
16436;SDS011;8328;52.206;21.006;2022-08-27T04:16:46;15.87;;;10.37;;
16436;SDS011;8328;52.206;21.006;2022-08-27T04:19:12;14.93;;;10.50;;
16436;SDS011;8328;52.206;21.006;2022-08-27T04:21:38;13.60;;;10.47;;
16436;SDS011;8328;52.206;21.006;2022-08-27T04:24:04;13.13;;;10.70;;
16436;SDS011;8328;52.206;21.006;2022-08-27T04:26:30;12.93;;;10.40;;
16436;SDS011;8328;52.206;21.006;2022-08-27T04:28:56;14.23;;;10.90;;
16436;SDS011;8328;52.206;21.006;2022-08-27T04:31:22;13.37;;;10.50;;
16436;SDS011;8328;52.206;21.006;2022-08-27T04:33:49;12.60;;;10.77;;
16436;SDS011;8328;52.206;21.006;2022-08-27T04:36:17;14.93;;;10.60;;
16436;SDS011;8328;52.206;21.006;2022-08-27T04:38:44;14.20;;;10.50;;
16436;SDS011;8328;52.206;21.006;2022-08-27T04:41:10;15.47;;;10.50;;
16436;SDS011;8328;52.206;21.006;2022-08-27T04:43:53;13.40;;;10.90;;
16436;SDS011;8328;52.206;21.006;2022-08-27T04:46:27;11.50;;;10.30;;
16436;SDS011;8328;52.206;21.006;2022-08-27T04:48:57;11.77;;;10.53;;
16436;SDS011;8328;52.206;21.006;2022-08-27T04:51:27;12.50;;;10.60;;
16436;SDS011;8328;52.206;21.006;2022-08-27T04:53:54;12.37;;;10.17;;
16436;SDS011;8328;52.206;21.006;2022-08-27T04:56:21;12.27;;;10.97;;
16436;SDS011;8328;52.206;21.006;2022-08-27T04:58:48;12.97;;;10.33;;
16436;SDS011;8328;52.206;21.006;2022-08-27T05:01:15;11.80;;;10.53;;
16436;SDS011;8328;52.206;21.006;2022-08-27T05:03:42;15.27;;;10.93;;
16436;SDS011;8328;52.206;21.006;2022-08-27T05:06:09;14.20;;;10.40;;
16436;SDS011;8328;52.206;21.006;2022-08-27T05:08:36;14.23;;;10.43;;
16436;SDS011;8328;52.206;21.006;2022-08-27T05:11:05;16.47;;;10.00;;
16436;SDS011;8328;52.206;21.006;2022-08-27T05:13:37;11.73;;;10.40;;
16436;SDS011;8328;52.206;21.006;2022-08-27T05:16:07;12.43;;;10.17;;
16436;SDS011;8328;52.206;21.006;2022-08-27T05:18:35;14.03;;;10.17;;
16436;SDS011;8328;52.206;21.006;2022-08-27T05:21:02;13.10;;;10.53;;
16436;SDS011;8328;52.206;21.006;2022-08-27T05:23:29;12.90;;;10.33;;
16436;SDS011;8328;52.206;21.006;2022-08-27T05:25:55;14.77;;;10.03;;
16436;SDS011;8328;52.206;21.006;2022-08-27T05:28:22;13.17;;;11.00;;
16436;SDS011;8328;52.206;21.006;2022-08-27T05:30:50;12.77;;;9.97;;
16436;SDS011;8328;52.206;21.006;2022-08-27T05:33:20;12.87;;;9.93;;
16436;SDS011;8328;52.206;21.006;2022-08-27T05:35:54;11.17;;;9.63;;
16436;SDS011;8328;52.206;21.006;2022-08-27T05:38:22;14.27;;;9.90;;
16436;SDS011;8328;52.206;21.006;2022-08-27T05:40:49;14.47;;;10.73;;
16436;SDS011;8328;52.206;21.006;2022-08-27T05:43:16;11.97;;;10.23;;
16436;SDS011;8328;52.206;21.006;2022-08-27T05:45:43;12.37;;;10.23;;
16436;SDS011;8328;52.206;21.006;2022-08-27T05:48:10;12.40;;;10.40;;
16436;SDS011;8328;52.206;21.006;2022-08-27T05:50:38;19.80;;;10.77;;
16436;SDS011;8328;52.206;21.006;2022-08-27T05:53:05;14.23;;;10.70;;
16436;SDS011;8328;52.206;21.006;2022-08-27T05:55:40;14.80;;;10.00;;
16436;SDS011;8328;52.206;21.006;2022-08-27T05:58:09;12.73;;;10.80;;
16436;SDS011;8328;52.206;21.006;2022-08-27T06:00:55;12.17;;;10.17;;
16436;SDS011;8328;52.206;21.006;2022-08-27T06:03:31;12.07;;;10.73;;
16436;SDS011;8328;52.206;21.006;2022-08-27T06:08:28;14.00;;;11.70;;
16436;SDS011;8328;52.206;21.006;2022-08-27T06:10:54;13.73;;;9.93;;
16436;SDS011;8328;52.206;21.006;2022-08-27T06:13:21;11.63;;;10.43;;
16436;SDS011;8328;52.206;21.006;2022-08-27T06:15:48;16.00;;;11.47;;
16436;SDS011;8328;52.206;21.006;2022-08-27T06:18:14;18.07;;;11.30;;
16436;SDS011;8328;52.206;21.006;2022-08-27T06:20:40;14.07;;;10.50;;
16436;SDS011;8328;52.206;21.006;2022-08-27T06:23:06;17.87;;;16.07;;
16436;SDS011;8328;52.206;21.006;2022-08-27T06:25:31;15.83;;;13.10;;
16436;SDS011;8328;52.206;21.006;2022-08-27T06:27:57;17.80;;;13.60;;
16436;SDS011;8328;52.206;21.006;2022-08-27T06:30:24;15.47;;;11.00;;
16436;SDS011;8328;52.206;21.006;2022-08-27T06:32:54;10.63;;;9.57;;
16436;SDS011;8328;52.206;21.006;2022-08-27T06:35:23;14.67;;;13.10;;
16436;SDS011;8328;52.206;21.006;2022-08-27T06:37:49;16.40;;;10.47;;
16436;SDS011;8328;52.206;21.006;2022-08-27T06:40:15;13.20;;;11.87;;
16436;SDS011;8328;52.206;21.006;2022-08-27T06:42:41;11.30;;;10.07;;
16436;SDS011;8328;52.206;21.006;2022-08-27T06:45:07;19.73;;;12.23;;
16436;SDS011;8328;52.206;21.006;2022-08-27T06:47:33;12.77;;;11.47;;
16436;SDS011;8328;52.206;21.006;2022-08-27T06:49:59;14.73;;;11.70;;
16436;SDS011;8328;52.206;21.006;2022-08-27T06:52:25;13.67;;;10.30;;
16436;SDS011;8328;52.206;21.006;2022-08-27T06:54:51;16.27;;;13.43;;
16436;SDS011;8328;52.206;21.006;2022-08-27T06:57:16;14.90;;;9.83;;
16436;SDS011;8328;52.206;21.006;2022-08-27T06:59:43;13.20;;;10.37;;
16436;SDS011;8328;52.206;21.006;2022-08-27T07:02:08;10.87;;;9.83;;
16436;SDS011;8328;52.206;21.006;2022-08-27T07:04:35;14.77;;;9.97;;
16436;SDS011;8328;52.206;21.006;2022-08-27T07:07:01;12.43;;;9.17;;
16436;SDS011;8328;52.206;21.006;2022-08-27T07:09:28;10.17;;;9.17;;
16436;SDS011;8328;52.206;21.006;2022-08-27T07:11:56;12.23;;;10.53;;
16436;SDS011;8328;52.206;21.006;2022-08-27T07:14:22;12.57;;;9.63;;
16436;SDS011;8328;52.206;21.006;2022-08-27T07:16:49;12.57;;;10.37;;
16436;SDS011;8328;52.206;21.006;2022-08-27T07:19:16;14.83;;;9.27;;
16436;SDS011;8328;52.206;21.006;2022-08-27T07:21:41;11.80;;;9.13;;
16436;SDS011;8328;52.206;21.006;2022-08-27T07:24:07;13.73;;;9.73;;
16436;SDS011;8328;52.206;21.006;2022-08-27T07:26:34;17.57;;;9.43;;
16436;SDS011;8328;52.206;21.006;2022-08-27T07:29:03;17.03;;;12.63;;
16436;SDS011;8328;52.206;21.006;2022-08-27T07:31:30;14.33;;;9.67;;
16436;SDS011;8328;52.206;21.006;2022-08-27T07:33:56;11.53;;;10.13;;
16436;SDS011;8328;52.206;21.006;2022-08-27T07:36:22;11.27;;;9.40;;
16436;SDS011;8328;52.206;21.006;2022-08-27T07:38:48;13.70;;;10.53;;
16436;SDS011;8328;52.206;21.006;2022-08-27T07:41:16;16.83;;;9.80;;
16436;SDS011;8328;52.206;21.006;2022-08-27T07:43:42;12.87;;;10.00;;
16436;SDS011;8328;52.206;21.006;2022-08-27T07:46:27;11.47;;;8.50;;
16436;SDS011;8328;52.206;21.006;2022-08-27T07:48:53;11.67;;;8.77;;
16436;SDS011;8328;52.206;21.006;2022-08-27T07:51:23;11.20;;;8.37;;
16436;SDS011;8328;52.206;21.006;2022-08-27T07:53:50;12.00;;;8.60;;
16436;SDS011;8328;52.206;21.006;2022-08-27T07:56:21;15.03;;;9.27;;
16436;SDS011;8328;52.206;21.006;2022-08-27T07:58:47;11.97;;;7.97;;
16436;SDS011;8328;52.206;21.006;2022-08-27T08:01:16;13.87;;;8.83;;
16436;SDS011;8328;52.206;21.006;2022-08-27T08:03:42;13.93;;;8.20;;
16436;SDS011;8328;52.206;21.006;2022-08-27T08:06:12;14.03;;;8.37;;
16436;SDS011;8328;52.206;21.006;2022-08-27T08:08:39;13.10;;;8.03;;
16436;SDS011;8328;52.206;21.006;2022-08-27T08:11:09;12.30;;;7.80;;
16436;SDS011;8328;52.206;21.006;2022-08-27T08:13:38;11.53;;;7.60;;
16436;SDS011;8328;52.206;21.006;2022-08-27T08:16:04;12.80;;;8.20;;
16436;SDS011;8328;52.206;21.006;2022-08-27T08:18:30;12.30;;;7.60;;
16436;SDS011;8328;52.206;21.006;2022-08-27T08:21:00;18.67;;;8.27;;
16436;SDS011;8328;52.206;21.006;2022-08-27T08:23:29;12.43;;;8.10;;
16436;SDS011;8328;52.206;21.006;2022-08-27T08:25:57;11.60;;;8.07;;
16436;SDS011;8328;52.206;21.006;2022-08-27T08:28:23;13.03;;;8.23;;
16436;SDS011;8328;52.206;21.006;2022-08-27T08:30:56;11.40;;;8.13;;
16436;SDS011;8328;52.206;21.006;2022-08-27T08:33:22;11.13;;;7.60;;
16436;SDS011;8328;52.206;21.006;2022-08-27T08:35:48;11.73;;;8.00;;
16436;SDS011;8328;52.206;21.006;2022-08-27T08:38:15;10.37;;;8.63;;
16436;SDS011;8328;52.206;21.006;2022-08-27T08:40:43;9.37;;;8.07;;
16436;SDS011;8328;52.206;21.006;2022-08-27T08:43:27;13.93;;;7.57;;
16436;SDS011;8328;52.206;21.006;2022-08-27T08:46:01;8.73;;;7.93;;
16436;SDS011;8328;52.206;21.006;2022-08-27T08:48:39;10.97;;;7.97;;
16436;SDS011;8328;52.206;21.006;2022-08-27T08:51:18;13.07;;;8.30;;
16436;SDS011;8328;52.206;21.006;2022-08-27T08:53:51;10.50;;;8.17;;
16436;SDS011;8328;52.206;21.006;2022-08-27T08:56:22;10.37;;;7.47;;
16436;SDS011;8328;52.206;21.006;2022-08-27T08:59:18;11.60;;;8.13;;
16436;SDS011;8328;52.206;21.006;2022-08-27T09:01:47;11.03;;;7.90;;
16436;SDS011;8328;52.206;21.006;2022-08-27T09:04:13;12.57;;;8.80;;
16436;SDS011;8328;52.206;21.006;2022-08-27T09:06:42;13.63;;;8.50;;
16436;SDS011;8328;52.206;21.006;2022-08-27T09:09:26;14.33;;;9.10;;
16436;SDS011;8328;52.206;21.006;2022-08-27T09:12:07;12.57;;;9.23;;
16436;SDS011;8328;52.206;21.006;2022-08-27T09:14:45;14.57;;;9.57;;
16436;SDS011;8328;52.206;21.006;2022-08-27T09:17:23;11.40;;;8.97;;
16436;SDS011;8328;52.206;21.006;2022-08-27T09:19:52;11.77;;;8.63;;
16436;SDS011;8328;52.206;21.006;2022-08-27T09:27:39;10.67;;;9.30;;
16436;SDS011;8328;52.206;21.006;2022-08-27T09:30:08;11.63;;;9.30;;
16436;SDS011;8328;52.206;21.006;2022-08-27T09:32:37;14.93;;;9.63;;
16436;SDS011;8328;52.206;21.006;2022-08-27T09:35:05;13.30;;;9.50;;
16436;SDS011;8328;52.206;21.006;2022-08-27T09:37:41;11.90;;;9.20;;
16436;SDS011;8328;52.206;21.006;2022-08-27T09:42:47;12.30;;;9.63;;
16436;SDS011;8328;52.206;21.006;2022-08-27T09:45:25;13.77;;;10.03;;
16436;SDS011;8328;52.206;21.006;2022-08-27T09:48:04;14.50;;;10.27;;
16436;SDS011;8328;52.206;21.006;2022-08-27T09:56:00;12.07;;;9.53;;
16436;SDS011;8328;52.206;21.006;2022-08-27T09:58:31;15.77;;;9.93;;
16436;SDS011;8328;52.206;21.006;2022-08-27T10:03:45;15.37;;;10.23;;
16436;SDS011;8328;52.206;21.006;2022-08-27T10:06:11;18.30;;;9.90;;
16436;SDS011;8328;52.206;21.006;2022-08-27T10:08:42;12.80;;;9.73;;
16436;SDS011;8328;52.206;21.006;2022-08-27T10:13:52;12.43;;;9.97;;
16436;SDS011;8328;52.206;21.006;2022-08-27T10:21:55;16.37;;;10.13;;
16436;SDS011;8328;52.206;21.006;2022-08-27T10:27:25;11.83;;;9.07;;
16436;SDS011;8328;52.206;21.006;2022-08-27T10:30:03;12.80;;;10.07;;
16436;SDS011;8328;52.206;21.006;2022-08-27T10:35:25;12.97;;;9.87;;
16436;SDS011;8328;52.206;21.006;2022-08-27T10:37:59;12.07;;;10.07;;
16436;SDS011;8328;52.206;21.006;2022-08-27T10:40:41;12.37;;;9.47;;
16436;SDS011;8328;52.206;21.006;2022-08-27T10:43:31;11.17;;;9.57;;
16436;SDS011;8328;52.206;21.006;2022-08-27T10:49:05;11.67;;;9.53;;
16436;SDS011;8328;52.206;21.006;2022-08-27T10:51:43;13.63;;;9.07;;
16436;SDS011;8328;52.206;21.006;2022-08-27T10:54:26;10.80;;;9.00;;
16436;SDS011;8328;52.206;21.006;2022-08-27T10:57:25;10.90;;;8.97;;
16436;SDS011;8328;52.206;21.006;2022-08-27T11:02:49;11.90;;;9.10;;
16436;SDS011;8328;52.206;21.006;2022-08-27T11:05:26;11.57;;;9.30;;
16436;SDS011;8328;52.206;21.006;2022-08-27T11:10:36;9.00;;;8.03;;
16436;SDS011;8328;52.206;21.006;2022-08-27T11:13:11;9.93;;;8.40;;
16436;SDS011;8328;52.206;21.006;2022-08-27T11:15:46;10.67;;;8.50;;
16436;SDS011;8328;52.206;21.006;2022-08-27T11:18:17;10.90;;;8.43;;
16436;SDS011;8328;52.206;21.006;2022-08-27T11:21:12;9.60;;;7.90;;
16436;SDS011;8328;52.206;21.006;2022-08-27T11:23:47;11.33;;;10.30;;
16436;SDS011;8328;52.206;21.006;2022-08-27T11:26:15;11.43;;;8.03;;
16436;SDS011;8328;52.206;21.006;2022-08-27T11:28:47;12.97;;;8.27;;
16436;SDS011;8328;52.206;21.006;2022-08-27T11:31:47;12.40;;;7.97;;
16436;SDS011;8328;52.206;21.006;2022-08-27T11:37:06;11.38;;;5.97;;
16436;SDS011;8328;52.206;21.006;2022-08-27T11:47:32;10.02;;;8.25;;
16436;SDS011;8328;52.206;21.006;2022-08-27T11:50:05;12.05;;;8.23;;
16436;SDS011;8328;52.206;21.006;2022-08-27T11:52:41;11.57;;;7.45;;
16436;SDS011;8328;52.206;21.006;2022-08-27T11:57:43;12.38;;;9.30;;
16436;SDS011;8328;52.206;21.006;2022-08-27T12:00:18;16.17;;;9.82;;
16436;SDS011;8328;52.206;21.006;2022-08-27T12:05:31;13.38;;;9.95;;
16436;SDS011;8328;52.206;21.006;2022-08-27T12:07:57;10.57;;;9.48;;
16436;SDS011;8328;52.206;21.006;2022-08-27T12:13:31;13.00;;;10.23;;
16436;SDS011;8328;52.206;21.006;2022-08-27T12:24:47;10.95;;;9.85;;
16436;SDS011;8328;52.206;21.006;2022-08-27T12:29:54;13.38;;;12.00;;
16436;SDS011;8328;52.206;21.006;2022-08-27T12:35:07;12.10;;;10.57;;
16436;SDS011;8328;52.206;21.006;2022-08-27T12:37:45;12.48;;;10.27;;
16436;SDS011;8328;52.206;21.006;2022-08-27T12:40:21;13.77;;;10.13;;
16436;SDS011;8328;52.206;21.006;2022-08-27T12:42:48;13.52;;;10.60;;
16436;SDS011;8328;52.206;21.006;2022-08-27T12:45:22;10.65;;;9.55;;
16436;SDS011;8328;52.206;21.006;2022-08-27T12:47:50;12.82;;;10.68;;
16436;SDS011;8328;52.206;21.006;2022-08-27T12:53:20;11.35;;;10.23;;
16436;SDS011;8328;52.206;21.006;2022-08-27T13:04:06;13.05;;;11.60;;
16436;SDS011;8328;52.206;21.006;2022-08-27T13:06:48;13.10;;;10.30;;
16436;SDS011;8328;52.206;21.006;2022-08-27T13:09:14;12.80;;;10.57;;
16436;SDS011;8328;52.206;21.006;2022-08-27T13:11:45;14.55;;;12.20;;
16436;SDS011;8328;52.206;21.006;2022-08-27T13:22:37;12.73;;;11.40;;
16436;SDS011;8328;52.206;21.006;2022-08-27T13:25:05;11.57;;;10.68;;
16436;SDS011;8328;52.206;21.006;2022-08-27T13:27:49;12.00;;;10.80;;
16436;SDS011;8328;52.206;21.006;2022-08-27T13:30:21;15.52;;;10.48;;
16436;SDS011;8328;52.206;21.006;2022-08-27T13:32:48;11.30;;;10.05;;
16436;SDS011;8328;52.206;21.006;2022-08-27T13:35:15;10.65;;;9.55;;
16436;SDS011;8328;52.206;21.006;2022-08-27T13:37:43;10.57;;;9.25;;
16436;SDS011;8328;52.206;21.006;2022-08-27T13:43:15;11.52;;;9.63;;
16436;SDS011;8328;52.206;21.006;2022-08-27T13:45:46;10.93;;;9.73;;
16436;SDS011;8328;52.206;21.006;2022-08-27T13:48:16;10.55;;;8.88;;
16436;SDS011;8328;52.206;21.006;2022-08-27T13:50:48;10.70;;;9.63;;
16436;SDS011;8328;52.206;21.006;2022-08-27T13:53:20;12.95;;;9.38;;
16436;SDS011;8328;52.206;21.006;2022-08-27T13:56:08;10.15;;;8.77;;
16436;SDS011;8328;52.206;21.006;2022-08-27T13:58:34;12.55;;;8.70;;
16436;SDS011;8328;52.206;21.006;2022-08-27T14:01:15;16.30;;;9.82;;
16436;SDS011;8328;52.206;21.006;2022-08-27T14:04:01;9.98;;;8.75;;
16436;SDS011;8328;52.206;21.006;2022-08-27T14:06:31;11.93;;;8.43;;
16436;SDS011;8328;52.206;21.006;2022-08-27T14:09:16;11.80;;;9.40;;
16436;SDS011;8328;52.206;21.006;2022-08-27T14:11:57;12.53;;;9.40;;
16436;SDS011;8328;52.206;21.006;2022-08-27T14:14:28;11.90;;;9.93;;
16436;SDS011;8328;52.206;21.006;2022-08-27T14:17:00;12.73;;;8.97;;
16436;SDS011;8328;52.206;21.006;2022-08-27T14:19:31;14.40;;;9.83;;
16436;SDS011;8328;52.206;21.006;2022-08-27T14:21:58;10.13;;;9.17;;
16436;SDS011;8328;52.206;21.006;2022-08-27T14:24:25;11.03;;;9.03;;
16436;SDS011;8328;52.206;21.006;2022-08-27T14:26:54;10.37;;;8.97;;
16436;SDS011;8328;52.206;21.006;2022-08-27T14:29:26;11.23;;;9.13;;
16436;SDS011;8328;52.206;21.006;2022-08-27T14:31:52;11.87;;;8.43;;
16436;SDS011;8328;52.206;21.006;2022-08-27T14:34:18;9.23;;;8.07;;
16436;SDS011;8328;52.206;21.006;2022-08-27T14:36:44;10.50;;;8.47;;
16436;SDS011;8328;52.206;21.006;2022-08-27T14:39:10;13.13;;;10.07;;
16436;SDS011;8328;52.206;21.006;2022-08-27T14:41:37;11.60;;;7.93;;
16436;SDS011;8328;52.206;21.006;2022-08-27T14:44:03;10.13;;;8.53;;
16436;SDS011;8328;52.206;21.006;2022-08-27T14:46:30;9.47;;;8.13;;
16436;SDS011;8328;52.206;21.006;2022-08-27T14:48:59;9.57;;;8.17;;
16436;SDS011;8328;52.206;21.006;2022-08-27T14:51:29;10.93;;;7.97;;
16436;SDS011;8328;52.206;21.006;2022-08-27T14:53:56;10.17;;;8.33;;
16436;SDS011;8328;52.206;21.006;2022-08-27T14:56:23;11.67;;;7.83;;
16436;SDS011;8328;52.206;21.006;2022-08-27T14:58:49;11.83;;;9.20;;
16436;SDS011;8328;52.206;21.006;2022-08-27T15:01:27;10.73;;;7.70;;
16436;SDS011;8328;52.206;21.006;2022-08-27T15:03:53;9.90;;;8.13;;
16436;SDS011;8328;52.206;21.006;2022-08-27T15:06:20;9.53;;;7.47;;
16436;SDS011;8328;52.206;21.006;2022-08-27T15:08:47;13.07;;;8.83;;
16436;SDS011;8328;52.206;21.006;2022-08-27T15:11:15;11.23;;;8.43;;
16436;SDS011;8328;52.206;21.006;2022-08-27T15:13:52;14.03;;;8.23;;
16436;SDS011;8328;52.206;21.006;2022-08-27T15:16:33;9.77;;;8.37;;
16436;SDS011;8328;52.206;21.006;2022-08-27T15:19:05;12.73;;;7.73;;
16436;SDS011;8328;52.206;21.006;2022-08-27T15:21:34;14.03;;;8.10;;
16436;SDS011;8328;52.206;21.006;2022-08-27T15:24:14;11.30;;;7.20;;
16436;SDS011;8328;52.206;21.006;2022-08-27T15:26:41;8.70;;;6.97;;
16436;SDS011;8328;52.206;21.006;2022-08-27T15:29:10;11.07;;;7.20;;
16436;SDS011;8328;52.206;21.006;2022-08-27T15:31:37;11.83;;;6.90;;
16436;SDS011;8328;52.206;21.006;2022-08-27T15:34:10;9.30;;;7.00;;
16436;SDS011;8328;52.206;21.006;2022-08-27T15:36:36;8.30;;;6.97;;
16436;SDS011;8328;52.206;21.006;2022-08-27T15:39:03;9.03;;;7.47;;
16436;SDS011;8328;52.206;21.006;2022-08-27T15:41:29;13.67;;;7.33;;
16436;SDS011;8328;52.206;21.006;2022-08-27T15:44:01;11.80;;;7.40;;
16436;SDS011;8328;52.206;21.006;2022-08-27T15:46:29;12.60;;;7.53;;
16436;SDS011;8328;52.206;21.006;2022-08-27T15:48:55;11.33;;;6.60;;
16436;SDS011;8328;52.206;21.006;2022-08-27T15:51:25;10.40;;;7.97;;
16436;SDS011;8328;52.206;21.006;2022-08-27T15:53:56;10.13;;;6.67;;
16436;SDS011;8328;52.206;21.006;2022-08-27T15:56:22;12.07;;;6.50;;
16436;SDS011;8328;52.206;21.006;2022-08-27T15:58:48;13.17;;;6.73;;
16436;SDS011;8328;52.206;21.006;2022-08-27T16:01:17;13.83;;;6.73;;
16436;SDS011;8328;52.206;21.006;2022-08-27T16:03:49;10.20;;;6.77;;
16436;SDS011;8328;52.206;21.006;2022-08-27T16:06:18;11.47;;;6.23;;
16436;SDS011;8328;52.206;21.006;2022-08-27T16:08:44;11.53;;;6.50;;
16436;SDS011;8328;52.206;21.006;2022-08-27T16:11:12;9.93;;;6.60;;
16436;SDS011;8328;52.206;21.006;2022-08-27T16:13:38;9.17;;;6.13;;
16436;SDS011;8328;52.206;21.006;2022-08-27T16:16:04;10.43;;;6.27;;
16436;SDS011;8328;52.206;21.006;2022-08-27T16:18:31;10.70;;;6.33;;
16436;SDS011;8328;52.206;21.006;2022-08-27T16:20:59;9.07;;;6.40;;
16436;SDS011;8328;52.206;21.006;2022-08-27T16:23:27;12.13;;;6.87;;
16436;SDS011;8328;52.206;21.006;2022-08-27T16:25:54;12.17;;;5.87;;
16436;SDS011;8328;52.206;21.006;2022-08-27T16:28:21;7.87;;;6.13;;
16436;SDS011;8328;52.206;21.006;2022-08-27T16:30:52;11.73;;;6.43;;
16436;SDS011;8328;52.206;21.006;2022-08-27T16:33:21;11.23;;;6.20;;